createdAt,value
2018-06-20T00:00:00.272Z,99.90
2018-06-20T00:03:05.480Z,99.90
2018-06-20T00:06:09.903Z,99.90
2018-06-20T00:09:14.087Z,99.90
2018-06-20T00:12:19.170Z,99.90
2018-06-20T00:15:24.171Z,99.90
2018-06-20T00:18:28.531Z,99.90
2018-06-20T00:21:32.738Z,99.90
2018-06-20T00:24:37.334Z,99.90
2018-06-20T00:27:41.919Z,99.90
2018-06-20T00:30:46.409Z,99.90
2018-06-20T00:33:57.285Z,99.90
2018-06-20T00:37:01.625Z,99.90
2018-06-20T00:40:05.987Z,99.90
2018-06-20T00:43:10.256Z,99.90
2018-06-20T00:46:14.380Z,99.90
2018-06-20T00:49:19.015Z,99.90
2018-06-20T00:52:24.860Z,99.90
2018-06-20T00:55:40.394Z,99.90
2018-06-20T00:58:44.520Z,99.90
2018-06-20T01:01:49.157Z,99.90
2018-06-20T01:04:54.842Z,99.90
2018-06-20T01:07:59.317Z,99.90
2018-06-20T01:11:03.624Z,99.90
2018-06-20T01:14:07.993Z,99.90
2018-06-20T01:17:12.272Z,99.90
2018-06-20T01:20:16.794Z,99.90
2018-06-20T01:23:21.853Z,99.90
2018-06-20T01:26:26.718Z,99.90
2018-06-20T01:29:32.030Z,99.90
2018-06-20T01:32:36.920Z,99.90
2018-06-20T01:35:42.317Z,99.90
2018-06-20T01:38:49.103Z,99.90
2018-06-20T01:41:53.661Z,99.90
2018-06-20T01:44:58.358Z,99.90
2018-06-20T01:48:02.786Z,99.90
2018-06-20T01:51:07.361Z,99.90
2018-06-20T01:54:11.689Z,99.90
2018-06-20T01:57:16.057Z,99.90
2018-06-20T02:00:20.601Z,99.90
2018-06-20T02:03:25.606Z,99.90
2018-06-20T02:06:29.939Z,99.90
2018-06-20T02:09:34.534Z,99.90
2018-06-20T02:12:38.770Z,99.90
2018-06-20T02:15:43.151Z,99.90
2018-06-20T02:18:47.852Z,99.90
2018-06-20T02:21:53.531Z,99.90
2018-06-20T02:24:59.027Z,99.90
2018-06-20T02:28:03.628Z,99.90
2018-06-20T02:31:08.007Z,99.90
2018-06-20T02:34:12.397Z,99.90
2018-06-20T02:37:17.061Z,99.90
2018-06-20T02:40:21.611Z,99.90
2018-06-20T02:43:26.097Z,99.90
2018-06-20T02:46:30.493Z,99.90
2018-06-20T02:49:34.743Z,99.90
2018-06-20T02:52:39.190Z,99.90
2018-06-20T02:55:43.639Z,99.90
2018-06-20T02:58:47.977Z,99.90
2018-06-20T03:01:53.156Z,99.90
2018-06-20T03:04:57.492Z,99.90
2018-06-20T03:08:02.673Z,99.90
2018-06-20T03:11:06.903Z,99.90
2018-06-20T03:14:11.377Z,99.90
2018-06-20T03:17:15.905Z,99.90
2018-06-20T03:20:22.304Z,99.90
2018-06-20T03:23:26.636Z,99.90
2018-06-20T03:26:30.980Z,99.90
2018-06-20T03:29:35.574Z,99.90
2018-06-20T03:32:40.147Z,99.90
2018-06-20T03:35:47.674Z,99.90
2018-06-20T03:38:52.493Z,99.90
2018-06-20T03:41:57.564Z,99.90
2018-06-20T03:45:02.139Z,99.90
2018-06-20T03:48:06.420Z,99.90
2018-06-20T03:51:12.079Z,99.90
2018-06-20T03:54:16.591Z,99.90
2018-06-20T03:57:22.552Z,99.90
2018-06-20T04:00:29.562Z,99.90
2018-06-20T04:03:34.149Z,99.90
2018-06-20T04:06:38.429Z,99.90
2018-06-20T04:09:42.780Z,99.90
2018-06-20T04:12:47.067Z,99.90
2018-06-20T04:15:51.334Z,99.90
2018-06-20T04:18:56.263Z,99.90
2018-06-20T04:22:01.332Z,99.90
2018-06-20T04:25:05.730Z,99.90
2018-06-20T04:28:09.991Z,99.90
2018-06-20T04:31:14.276Z,99.90
2018-06-20T04:34:18.649Z,99.90
2018-06-20T04:37:23.005Z,99.90
2018-06-20T04:40:27.919Z,99.90
2018-06-20T04:43:33.337Z,99.90
2018-06-20T04:46:37.721Z,99.90
2018-06-20T04:49:42.104Z,99.90
2018-06-20T04:52:46.434Z,99.90
2018-06-20T04:55:50.990Z,99.90
2018-06-20T04:58:55.508Z,99.90
2018-06-20T05:01:59.629Z,99.90
2018-06-20T05:05:04.115Z,99.90
2018-06-20T05:08:08.489Z,99.90
2018-06-20T05:11:12.743Z,99.90
2018-06-20T05:14:17.529Z,99.90
2018-06-20T05:17:22.277Z,99.90
2018-06-20T05:20:27.217Z,99.90
2018-06-20T05:23:31.492Z,99.90
2018-06-20T05:26:36.311Z,99.90
2018-06-20T05:29:40.521Z,99.90
2018-06-20T05:32:44.776Z,99.90
2018-06-20T05:35:49.261Z,99.90
2018-06-20T05:38:54.972Z,99.90
2018-06-20T05:41:59.961Z,99.90
2018-06-20T05:45:05.295Z,99.90
2018-06-20T05:48:09.694Z,99.90
2018-06-20T05:51:14.010Z,99.90
2018-06-20T05:54:19.841Z,99.90
2018-06-20T05:57:24.234Z,99.90
2018-06-20T06:00:28.654Z,99.90
2018-06-20T06:03:33.862Z,99.90
2018-06-20T06:06:38.334Z,99.90
2018-06-20T06:09:42.869Z,99.90
2018-06-20T06:12:50.096Z,97.80
2018-06-20T06:15:55.408Z,94.50
2018-06-20T06:19:00.485Z,93.40
2018-06-20T06:22:04.805Z,92.00
2018-06-20T06:25:09.661Z,92.50
2018-06-20T06:28:14.373Z,92.90
2018-06-20T06:31:18.683Z,93.90
2018-06-20T06:34:25.049Z,94.20
2018-06-20T06:37:29.652Z,93.90
2018-06-20T06:40:34.342Z,92.00
2018-06-20T06:43:38.575Z,89.80
2018-06-20T06:46:42.969Z,85.60
2018-06-20T06:49:47.243Z,83.30
2018-06-20T06:52:51.665Z,84.70
2018-06-20T06:55:56.091Z,86.40
2018-06-20T06:59:00.366Z,87.40
2018-06-20T07:02:04.684Z,87.30
2018-06-20T07:05:09.206Z,87.50
2018-06-20T07:08:13.636Z,88.70
2018-06-20T07:14:21.934Z,86.40
2018-06-20T07:17:27.651Z,81.40
2018-06-20T07:20:32.015Z,81.10
2018-06-20T07:23:36.442Z,77.30
2018-06-20T07:26:40.731Z,75.00
2018-06-20T07:29:45.178Z,78.30
2018-06-20T07:32:50.246Z,73.80
2018-06-20T07:37:03.913Z,68.60
2018-06-20T07:40:10.704Z,61.90
2018-06-20T07:43:17.543Z,64.90
2018-06-20T07:46:23.638Z,67.00
2018-06-20T07:49:28.370Z,65.20
2018-06-20T07:52:42.853Z,63.10
2018-06-20T07:55:47.605Z,58.50
2018-06-20T07:58:57.673Z,59.00
2018-06-20T08:02:19.252Z,58.50
2018-06-20T08:05:29.252Z,57.50
2018-06-20T08:08:39.993Z,58.40
2018-06-20T08:11:52.660Z,62.20
2018-06-20T08:15:02.622Z,62.40
2018-06-20T08:18:12.383Z,63.30
2018-06-20T08:21:16.966Z,62.10
2018-06-20T08:24:21.712Z,64.10
2018-06-20T08:27:26.374Z,63.30
2018-06-20T08:30:30.929Z,64.30
2018-06-20T08:33:35.679Z,64.40
2018-06-20T08:36:40.257Z,68.10
2018-06-20T08:39:45.231Z,65.30
2018-06-20T08:42:49.764Z,62.90
2018-06-20T08:48:58.775Z,58.10
2018-06-20T08:52:03.773Z,59.50
2018-06-20T08:55:08.302Z,58.70
2018-06-20T08:58:12.810Z,59.60
2018-06-20T09:01:17.134Z,61.30
2018-06-20T09:04:26.569Z,66.70
2018-06-20T09:07:36.060Z,66.70
2018-06-20T09:11:48.138Z,67.10
2018-06-20T09:14:58.100Z,69.90
2018-06-20T09:18:07.461Z,71.00
2018-06-20T09:21:11.806Z,67.80
2018-06-20T09:24:16.116Z,67.60
2018-06-20T09:27:20.772Z,71.10
2018-06-20T09:30:25.199Z,73.60
2018-06-20T09:33:30.079Z,75.00
2018-06-20T09:36:34.506Z,77.20
2018-06-20T09:39:39.242Z,70.10
2018-06-20T09:42:44.330Z,65.00
2018-06-20T09:45:49.715Z,61.70
2018-06-20T09:48:55.497Z,64.60
2018-06-20T09:52:01.256Z,60.00
2018-06-20T09:55:08.165Z,57.30
2018-06-20T09:58:12.858Z,58.10
2018-06-20T10:01:23.292Z,60.40
2018-06-20T10:04:34.116Z,61.40
2018-06-20T10:07:48.586Z,62.00
2018-06-20T10:14:19.819Z,57.40
2018-06-20T10:17:48.461Z,60.90
2018-06-20T10:20:56.549Z,58.80
2018-06-20T10:24:12.938Z,57.40
2018-06-20T10:27:27.617Z,56.60
2018-06-20T10:30:38.286Z,58.50
2018-06-20T10:33:57.107Z,60.00
2018-06-20T10:37:03.632Z,57.30
2018-06-20T10:43:20.210Z,56.40
2018-06-20T10:46:34.369Z,54.30
2018-06-20T10:49:42.322Z,53.40
2018-06-20T10:52:47.045Z,55.60
2018-06-20T10:55:54.488Z,58.00
2018-06-20T10:59:06.584Z,58.40
2018-06-20T11:03:19.043Z,60.60
2018-06-20T11:06:30.501Z,62.80
2018-06-20T11:09:40.506Z,57.40
2018-06-20T11:12:50.145Z,58.90
2018-06-20T11:15:57.663Z,59.50
2018-06-20T11:19:08.190Z,61.00
2018-06-20T11:22:18.491Z,57.50
2018-06-20T11:25:23.700Z,57.30
2018-06-20T11:28:32.212Z,61.10
2018-06-20T11:31:39.714Z,62.70
2018-06-20T11:34:45.611Z,64.30
2018-06-20T11:37:50.928Z,65.20
2018-06-20T11:40:56.591Z,62.30
2018-06-20T11:44:02.631Z,61.00
2018-06-20T11:47:12.461Z,60.80
2018-06-20T11:50:19.471Z,59.90
2018-06-20T11:53:25.594Z,60.30
2018-06-20T11:56:33.889Z,62.10
2018-06-20T11:59:50.136Z,63.20
2018-06-20T12:03:07.405Z,63.70
2018-06-20T12:06:17.905Z,62.20
2018-06-20T12:09:31.665Z,61.90
2018-06-20T12:13:47.435Z,64.50
2018-06-20T12:16:54.256Z,64.20
2018-06-20T12:20:12.489Z,63.40
2018-06-20T12:23:24.687Z,64.60
2018-06-20T12:26:36.094Z,65.10
2018-06-20T12:29:45.688Z,64.60
2018-06-20T12:32:55.886Z,65.00
2018-06-20T12:39:42.844Z,64.10
2018-06-20T12:42:56.638Z,62.80
2018-06-20T12:46:04.635Z,64.00
2018-06-20T12:49:21.935Z,63.40
2018-06-20T12:52:38.964Z,64.40
2018-06-20T12:55:46.537Z,64.00
2018-06-20T12:58:52.594Z,64.10
2018-06-20T13:02:05.319Z,65.30
2018-06-20T13:05:10.137Z,63.00
2018-06-20T13:08:15.754Z,63.10
2018-06-20T13:11:22.939Z,62.60
2018-06-20T13:14:31.056Z,63.10
2018-06-20T13:17:37.417Z,63.60
2018-06-20T13:21:39.776Z,62.30
2018-06-20T13:24:50.555Z,61.60
2018-06-20T13:28:51.571Z,61.10
2018-06-20T13:46:43.670Z,62.10
2018-06-20T13:53:37.983Z,62.30
2018-06-20T14:03:11.025Z,61.60
2018-06-20T14:06:53.787Z,59.60
2018-06-20T14:13:24.939Z,60.60
2018-06-20T14:17:02.013Z,62.80
2018-06-20T14:25:50.509Z,63.40
2018-06-20T14:38:55.076Z,60.00
2018-06-20T14:43:07.347Z,61.50
2018-06-20T14:56:40.715Z,62.00
2018-06-20T14:59:50.658Z,62.00
2018-06-20T15:03:07.241Z,61.60
2018-06-20T15:06:17.442Z,60.50
2018-06-20T15:09:23.683Z,60.90
2018-06-20T15:12:33.083Z,61.30
2018-06-20T15:15:51.056Z,61.70
2018-06-20T15:18:59.162Z,60.90
2018-06-20T15:23:57.070Z,60.50
2018-06-20T15:30:39.322Z,61.60
2018-06-20T15:34:09.170Z,61.30
2018-06-20T15:37:25.254Z,60.90
2018-06-20T15:40:38.368Z,60.00
2018-06-20T15:43:43.175Z,60.70
2018-06-20T15:47:04.621Z,59.70
2018-06-20T15:50:17.286Z,59.30
2018-06-20T15:53:32.897Z,60.00
2018-06-20T15:56:42.007Z,59.90
2018-06-20T16:00:12.761Z,59.70
2018-06-20T16:03:18.847Z,59.70
2018-06-20T16:06:29.348Z,57.90
2018-06-20T16:09:44.381Z,58.10
2018-06-20T16:12:53.250Z,58.80
2018-06-20T16:16:09.282Z,59.40
2018-06-20T16:19:29.395Z,58.90
2018-06-20T16:22:45.793Z,59.40
2018-06-20T16:25:58.343Z,59.40
2018-06-20T16:29:15.015Z,58.90
2018-06-20T16:42:34.130Z,58.80
2018-06-20T16:45:44.876Z,59.50
2018-06-20T16:48:51.278Z,59.90
2018-06-20T16:52:24.281Z,59.60
2018-06-20T16:55:41.558Z,59.90
2018-06-20T16:58:49.565Z,59.40
2018-06-20T17:02:05.711Z,59.60
2018-06-20T17:05:13.139Z,59.00
2018-06-20T17:08:21.857Z,59.00
2018-06-20T17:30:19.387Z,60.60
2018-06-20T17:33:24.887Z,59.80
2018-06-20T17:36:42.419Z,61.00
2018-06-20T17:43:38.889Z,61.50
2018-06-20T19:11:56.062Z,62.50
2018-06-20T19:28:29.026Z,77.10
2018-06-20T19:35:21.865Z,79.50
2018-06-20T19:38:28.728Z,80.70
2018-06-20T19:41:35.024Z,79.70
2018-06-20T19:44:41.642Z,80.90
2018-06-20T19:47:55.777Z,80.60
2018-06-20T19:51:10.300Z,81.50
2018-06-20T19:54:22.033Z,81.40
2018-06-20T19:57:29.177Z,82.00
2018-06-20T20:00:49.890Z,83.00
2018-06-20T20:04:00.675Z,83.40
2018-06-20T20:07:09.772Z,83.20
2018-06-20T20:10:20.042Z,84.80
2018-06-20T20:14:35.061Z,85.70
2018-06-20T20:18:34.662Z,86.40
2018-06-20T20:25:02.618Z,87.30
2018-06-20T20:28:14.980Z,87.20
2018-06-20T20:31:21.331Z,88.00
2018-06-20T20:34:28.666Z,89.60
2018-06-20T20:37:44.337Z,89.50
2018-06-20T20:40:55.682Z,90.40
2018-06-20T20:44:04.392Z,90.70
2018-06-20T20:47:19.528Z,90.60
2018-06-20T20:50:36.742Z,90.70
2018-06-20T20:53:44.564Z,90.80
2018-06-20T20:56:54.698Z,91.00
2018-06-20T21:00:16.243Z,90.90
2018-06-20T21:03:22.669Z,91.90
2018-06-20T21:06:28.751Z,92.00
2018-06-20T21:09:37.511Z,91.90
2018-06-20T21:12:44.039Z,92.10
2018-06-20T21:15:58.128Z,92.60
2018-06-20T21:19:02.725Z,93.10
2018-06-20T21:22:07.421Z,93.40
2018-06-20T21:25:13.573Z,93.40
2018-06-20T21:28:19.248Z,93.60
2018-06-20T21:31:25.748Z,93.90
2018-06-20T21:34:34.682Z,93.90
2018-06-20T21:37:51.005Z,94.00
2018-06-20T21:45:05.369Z,94.80
2018-06-20T21:48:13.568Z,95.00
2018-06-20T21:51:31.883Z,95.20
2018-06-20T21:54:43.636Z,95.30
2018-06-20T21:58:05.850Z,95.10
2018-06-20T22:01:16.923Z,95.20
2018-06-20T22:04:32.435Z,96.60
2018-06-20T22:07:41.787Z,97.30
2018-06-20T22:10:46.512Z,97.50
2018-06-20T22:14:11.279Z,98.20
2018-06-20T22:17:17.125Z,98.30
2018-06-20T22:20:31.559Z,99.00
2018-06-20T22:23:46.976Z,98.50
2018-06-20T22:26:54.978Z,98.70
2018-06-20T22:30:10.646Z,98.50
2018-06-20T22:33:19.287Z,98.70
2018-06-20T22:36:30.092Z,99.00
2018-06-20T22:39:52.760Z,98.90
2018-06-20T22:43:19.695Z,99.20
2018-06-20T22:46:41.716Z,99.70
2018-06-20T22:49:46.870Z,99.90
2018-06-20T22:52:51.600Z,99.90
2018-06-20T22:55:56.433Z,99.90
2018-06-20T22:59:01.052Z,99.90
2018-06-20T23:02:05.690Z,99.90
2018-06-20T23:05:10.290Z,99.90
2018-06-20T23:08:14.975Z,99.90
2018-06-20T23:11:19.960Z,99.90
2018-06-20T23:14:24.742Z,99.90
2018-06-20T23:17:32.447Z,99.90
2018-06-20T23:20:37.361Z,99.90
2018-06-20T23:23:42.151Z,99.90
2018-06-20T23:26:46.543Z,99.90
2018-06-20T23:29:52.129Z,99.90
2018-06-20T23:32:56.906Z,99.90
2018-06-20T23:36:01.415Z,99.90
2018-06-20T23:39:10.621Z,99.90
2018-06-20T23:42:15.443Z,99.90
2018-06-20T23:45:21.884Z,99.90
2018-06-20T23:48:27.070Z,99.90
2018-06-20T23:51:32.711Z,99.90
2018-06-20T23:54:40.472Z,99.90
2018-06-20T23:57:46.549Z,99.90
